Time;durP1;ratioP1;P1;durP2;ratioP2;P2;SDS_P1;SDS_P2;PMS_P1;PMS_P2;Temp;Humidity;BMP_temperature;BMP_pressure;BME280_temperature;BME280_humidity;BME280_pressure;Samples;Min_cycle;Max_cycle;Signal;HPM_P1;HPM_P2
2022/07/17 00:01:04;;;;;;;4.03;3.73;;;;;;;12.55;100.00;97873.56;5024739;28;20813;-58
2022/07/17 00:03:33;;;;;;;4.60;4.10;;;;;;;12.52;100.00;97873.91;5023687;28;20672;-57
2022/07/17 00:06:01;;;;;;;4.50;4.20;;;;;;;12.44;100.00;97866.81;5021599;28;20208;-53
2022/07/17 00:08:32;;;;;;;4.77;4.40;;;;;;;12.38;100.00;97873.69;5022912;28;20210;-56
2022/07/17 00:11:02;;;;;;;4.77;4.47;;;;;;;12.34;100.00;97880.38;4999572;28;20237;-55
2022/07/17 00:13:30;;;;;;;4.60;4.30;;;;;;;12.35;100.00;97876.72;4982518;28;20890;-58
2022/07/17 00:15:59;;;;;;;4.07;3.87;;;;;;;12.29;100.00;97872.94;5022980;28;20672;-60
2022/07/17 00:18:27;;;;;;;4.63;4.20;;;;;;;12.23;100.00;97875.47;4973110;28;20227;-59
2022/07/17 00:20:55;;;;;;;5.70;4.90;;;;;;;12.16;100.00;97878.03;4991649;28;20499;-61
2022/07/17 00:23:24;;;;;;;6.27;4.77;;;;;;;12.15;100.00;97879.03;5025134;28;20612;-52
2022/07/17 00:25:52;;;;;;;7.23;5.00;;;;;;;12.11;100.00;97875.88;5019880;28;20618;-57
2022/07/17 00:28:22;;;;;;;5.13;4.00;;;;;;;12.08;100.00;97878.06;5002219;28;20478;-54
2022/07/17 00:30:50;;;;;;;4.07;3.87;;;;;;;12.02;100.00;97866.31;5026402;28;20255;-55
2022/07/17 00:33:18;;;;;;;6.67;4.70;;;;;;;12.02;100.00;97874.28;4977935;28;20254;-56
2022/07/17 00:35:46;;;;;;;4.80;4.43;;;;;;;11.96;100.00;97878.44;5024348;28;20696;-49
2022/07/17 00:38:14;;;;;;;4.40;4.10;;;;;;;11.93;100.00;97877.94;5024620;28;20235;-59
2022/07/17 00:40:45;;;;;;;4.70;4.40;;;;;;;11.91;100.00;97882.63;5023351;28;20219;-60
2022/07/17 00:43:13;;;;;;;5.53;4.90;;;;;;;11.90;100.00;97886.28;4999970;28;20274;-57
2022/07/17 00:45:43;;;;;;;4.60;4.30;;;;;;;11.84;100.00;97887.81;5024345;28;20299;-60
2022/07/17 00:48:12;;;;;;;4.83;4.53;;;;;;;11.81;100.00;97877.56;5019955;28;20313;-60
2022/07/17 00:50:42;;;;;;;5.57;4.53;;;;;;;11.77;100.00;97877.06;4972173;28;20304;-58
2022/07/17 00:53:11;;;;;;;4.90;4.50;;;;;;;11.75;100.00;97880.91;5026693;28;20223;-58
2022/07/17 00:55:40;;;;;;;4.77;4.33;;;;;;;11.74;100.00;97890.69;5025410;28;20203;-56
2022/07/17 00:58:12;;;;;;;4.37;4.07;;;;;;;11.74;100.00;97885.38;5024437;28;20202;-56
2022/07/17 01:00:40;;;;;;;4.83;4.30;;;;;;;11.73;100.00;97891.69;5004055;28;20642;-59
2022/07/17 01:03:10;;;;;;;5.03;4.57;;;;;;;11.70;100.00;97900.00;5026573;28;20232;-58
2022/07/17 01:05:38;;;;;;;5.10;4.80;;;;;;;11.67;100.00;97900.34;4974446;28;20246;-58
2022/07/17 01:08:07;;;;;;;5.33;4.87;;;;;;;11.59;100.00;97895.91;5026905;28;20196;-56
2022/07/17 01:10:35;;;;;;;5.07;4.73;;;;;;;11.56;100.00;97891.78;5026874;28;20635;-59
2022/07/17 01:13:04;;;;;;;4.67;4.27;;;;;;;11.48;100.00;97888.31;5023807;28;20231;-54
2022/07/17 01:15:32;;;;;;;4.83;4.53;;;;;;;11.42;100.00;97892.47;5002954;28;20201;-54
2022/07/17 01:18:06;;;;;;;4.77;4.37;;;;;;;11.38;100.00;97888.53;5023969;28;20410;-60
2022/07/17 01:20:37;;;;;;;5.50;5.00;;;;;;;11.28;100.00;97884.25;4972434;28;20231;-57
2022/07/17 01:23:07;;;;;;;5.03;4.73;;;;;;;11.29;100.00;97893.03;5024452;28;20284;-59
2022/07/17 01:25:36;;;;;;;5.17;4.67;;;;;;;11.27;100.00;97893.22;5025601;28;20372;-59
2022/07/17 01:28:05;;;;;;;4.93;4.53;;;;;;;11.24;100.00;97893.56;5019964;28;20200;-59
2022/07/17 01:30:33;;;;;;;4.40;4.10;;;;;;;11.19;100.00;97892.41;5003317;28;20231;-57
2022/07/17 01:33:02;;;;;;;4.37;4.07;;;;;;;11.14;100.00;97896.38;5028254;28;20239;-58
2022/07/17 01:35:31;;;;;;;4.57;4.27;;;;;;;11.06;100.00;97887.63;4977162;28;20212;-58
2022/07/17 01:38:00;;;;;;;5.20;4.90;;;;;;;11.10;100.00;97894.25;5028168;28;20372;-58
2022/07/17 01:40:29;;;;;;;4.90;4.60;;;;;;;11.11;100.00;97893.25;5002336;28;21026;-59
2022/07/17 01:42:57;;;;;;;4.60;4.20;;;;;;;11.08;100.00;97891.78;5025805;28;20267;-59
2022/07/17 01:45:25;;;;;;;4.20;4.00;;;;;;;11.10;100.00;97894.25;4996262;28;20238;-58
2022/07/17 01:47:53;;;;;;;5.13;4.80;;;;;;;11.09;100.00;97890.78;5029112;28;20227;-59
2022/07/17 01:50:22;;;;;;;4.60;4.20;;;;;;;11.02;100.00;97878.34;4978062;28;20228;-61
2022/07/17 01:52:50;;;;;;;4.40;4.10;;;;;;;11.12;100.00;97886.94;5027745;28;20373;-58
2022/07/17 01:55:18;;;;;;;4.43;4.07;;;;;;;11.12;100.00;97889.59;5026580;28;20269;-55
2022/07/17 01:57:48;;;;;;;5.30;4.87;;;;;;;11.12;100.00;97890.44;5025020;28;20196;-58
2022/07/17 02:00:18;;;;;;;4.43;4.13;;;;;;;11.11;100.00;97895.88;5024217;28;20223;-55
2022/07/17 02:02:46;;;;;;;4.90;4.60;;;;;;;11.09;100.00;97890.78;5007547;28;20227;-59
2022/07/17 02:05:15;;;;;;;4.27;4.03;;;;;;;11.07;100.00;97898.06;5001094;28;20808;-59
2022/07/17 02:07:44;;;;;;;4.80;4.50;;;;;;;11.02;100.00;97899.56;5016820;28;20741;-59
2022/07/17 02:10:14;;;;;;;5.73;4.70;;;;;;;10.99;100.00;97896.25;5026195;28;20243;-59
2022/07/17 02:12:43;;;;;;;5.43;4.90;;;;;;;10.95;100.00;97899.41;5030636;28;20527;-59
2022/07/17 02:15:13;;;;;;;4.53;4.23;;;;;;;10.86;100.00;97894.13;5027171;28;20204;-58
2022/07/17 02:17:42;;;;;;;4.77;4.47;;;;;;;10.83;100.00;97891.00;5004846;28;20318;-53
2022/07/17 02:20:11;;;;;;;5.23;4.50;;;;;;;10.82;100.00;97892.81;5028622;28;21070;-57
2022/07/17 02:22:39;;;;;;;4.57;4.27;;;;;;;10.76;100.00;97890.00;4977003;28;20728;-58
2022/07/17 02:25:08;;;;;;;4.87;4.60;;;;;;;10.74;100.00;97900.78;4973590;28;20248;-60
2022/07/17 02:27:37;;;;;;;3.97;3.77;;;;;;;10.65;100.00;97892.00;5006929;28;20207;-53
2022/07/17 02:30:07;;;;;;;4.63;4.43;;;;;;;10.66;100.00;97900.78;5028917;28;20673;-58
2022/07/17 02:32:37;;;;;;;4.70;4.40;;;;;;;10.63;100.00;97901.94;5020218;28;20235;-60
2022/07/17 02:35:08;;;;;;;4.70;4.30;;;;;;;10.63;100.00;97901.94;5022421;28;21818;-58
2022/07/17 02:37:36;;;;;;;3.93;3.73;;;;;;;10.64;100.00;97906.25;5028011;28;20239;-58
2022/07/17 02:40:05;;;;;;;4.13;3.93;;;;;;;10.61;100.00;97900.47;4974788;28;20843;-56
2022/07/17 02:42:33;;;;;;;4.97;4.57;;;;;;;10.54;100.00;97898.44;5025995;28;20514;-59
2022/07/17 02:45:01;;;;;;;4.93;4.60;;;;;;;10.53;100.00;97898.63;5022445;28;20443;-54
2022/07/17 02:47:31;;;;;;;5.07;4.57;;;;;;;10.54;100.00;97898.44;5030503;28;20596;-56
2022/07/17 02:50:01;;;;;;;4.30;4.00;;;;;;;10.53;100.00;97896.81;5005229;28;20543;-58
2022/07/17 02:52:30;;;;;;;4.87;4.60;;;;;;;10.52;100.00;97899.63;5027381;28;20227;-58
2022/07/17 02:54:58;;;;;;;4.67;4.37;;;;;;;10.49;100.00;97903.44;5019673;28;20204;-55
2022/07/17 02:57:26;;;;;;;4.60;4.20;;;;;;;10.44;100.00;97897.81;4976039;28;20215;-59
2022/07/17 02:59:54;;;;;;;4.47;4.23;;;;;;;10.42;100.00;97895.34;5026347;28;20417;-59
2022/07/17 03:02:22;;;;;;;4.83;4.43;;;;;;;10.36;100.00;97900.44;5028036;28;20651;-59
2022/07/17 03:04:50;;;;;;;5.03;4.63;;;;;;;10.30;100.00;97898.44;5003706;28;20651;-58
2022/07/17 03:07:20;;;;;;;5.00;4.60;;;;;;;10.25;100.00;97901.56;5028508;28;20258;-58
2022/07/17 03:09:48;;;;;;;4.90;4.40;;;;;;;10.23;100.00;97898.25;5022483;28;20757;-57
2022/07/17 03:12:16;;;;;;;4.80;4.50;;;;;;;10.21;100.00;97906.34;4977115;28;20298;-61
2022/07/17 03:14:44;;;;;;;4.33;4.13;;;;;;;10.19;100.00;97900.41;5024030;28;20314;-59
2022/07/17 03:17:12;;;;;;;5.10;4.70;;;;;;;10.16;100.00;97899.91;5026193;28;20841;-57
2022/07/17 03:19:40;;;;;;;5.17;4.67;;;;;;;10.16;100.00;97903.38;5005870;28;20716;-54
2022/07/17 03:22:08;;;;;;;5.10;4.70;;;;;;;10.12;100.00;97905.53;5026214;28;20662;-59
2022/07/17 03:24:38;;;;;;;4.33;4.03;;;;;;;-148.82;100.00;60434.72;5024591;28;20238;-58
2022/07/17 03:27:06;;;;;;;4.73;4.43;;;;;;;10.07;100.00;97907.84;4978051;28;21431;-60
2022/07/17 03:29:34;;;;;;;4.33;4.13;;;;;;;10.06;100.00;97906.19;5032015;28;20281;-56
2022/07/17 03:32:03;;;;;;;4.37;4.07;;;;;;;10.07;100.00;97909.66;5020481;28;20323;-59
2022/07/17 03:34:31;;;;;;;4.47;4.07;;;;;;;10.05;100.00;97901.03;5028848;28;20220;-58
2022/07/17 03:36:59;;;;;;;4.27;4.00;;;;;;;10.03;100.00;97906.50;5007018;28;20530;-57
2022/07/17 03:39:27;;;;;;;4.43;4.03;;;;;;;9.99;100.00;97905.16;5024430;28;20317;-57
2022/07/17 03:41:57;;;;;;;5.17;4.77;;;;;;;9.96;100.00;97910.78;5028235;28;20647;-60
2022/07/17 03:44:25;;;;;;;6.23;4.40;;;;;;;9.96;100.00;97910.78;4978103;28;20243;-57
2022/07/17 03:46:53;;;;;;;5.00;4.70;;;;;;;9.92;100.00;97894.41;5024191;28;20531;-56
2022/07/17 03:49:22;;;;;;;5.00;4.70;;;;;;;9.92;100.00;97909.44;5027255;28;20223;-57
2022/07/17 03:51:50;;;;;;;5.07;4.77;;;;;;;9.91;100.00;97903.34;5002988;28;20704;-55
2022/07/17 03:54:19;;;;;;;4.00;3.80;;;;;;;9.92;100.00;97904.16;5022357;28;20255;-56
2022/07/17 03:56:48;;;;;;;4.87;4.47;;;;;;;9.93;100.00;97903.16;5023074;28;20763;-54
2022/07/17 03:59:17;;;;;;;4.30;4.00;;;;;;;9.91;100.00;97898.06;4981068;28;20711;-53
2022/07/17 04:01:45;;;;;;;4.63;4.23;;;;;;;9.96;100.00;97906.34;5022531;28;20278;-56
2022/07/17 04:04:13;;;;;;;6.53;4.57;;;;;;;10.01;100.00;97907.66;5024013;28;20299;-55
2022/07/17 04:06:41;;;;;;;4.30;4.03;;;;;;;10.05;100.00;97909.00;5000560;28;20289;-55
2022/07/17 04:09:09;;;;;;;4.20;3.90;;;;;;;10.08;100.00;97906.84;5028734;28;20771;-56
2022/07/17 04:11:37;;;;;;;5.73;5.43;;;;;;;10.11;100.00;97903.03;5016953;28;20227;-56
2022/07/17 04:14:05;;;;;;;5.63;5.10;;;;;;;10.14;100.00;97908.84;4974294;28;21031;-57
2022/07/17 04:16:35;;;;;;;4.93;4.53;;;;;;;10.17;100.00;97912.16;5022473;28;20337;-60
2022/07/17 04:19:03;;;;;;;4.47;4.07;;;;;;;10.23;100.00;97917.63;5001250;28;20399;-57
2022/07/17 04:21:31;;;;;;;4.33;4.13;;;;;;;10.30;100.00;97911.69;5001263;28;20659;-57
2022/07/17 04:23:59;;;;;;;4.93;4.37;;;;;;;10.36;100.00;97911.03;5024577;28;20342;-59
2022/07/17 04:26:27;;;;;;;4.83;4.50;;;;;;;10.46;100.00;97906.41;5028031;28;20204;-60
2022/07/17 04:28:55;;;;;;;4.00;3.80;;;;;;;10.64;100.00;97908.88;5024590;28;20683;-59
2022/07/17 04:31:23;;;;;;;4.20;4.00;;;;;;;10.70;100.00;97908.22;4983775;28;20302;-58
2022/07/17 04:33:54;;;;;;;4.70;3.87;;;;;;;10.71;100.00;97901.13;4962969;28;20386;-60
2022/07/17 04:36:22;;;;;;;4.60;4.17;;;;;;;10.84;100.00;97914.66;5009972;28;21078;-58
2022/07/17 04:38:50;;;;;;;3.93;3.63;;;;;;;10.95;100.00;97910.00;5023966;28;20205;-58
2022/07/17 04:41:18;;;;;;;4.10;3.90;;;;;;;11.06;100.00;97907.03;4996046;28;21870;-58
2022/07/17 04:43:46;;;;;;;4.20;4.00;;;;;;;11.23;100.00;97913.13;5021734;28;20200;-60
2022/07/17 04:46:14;;;;;;;4.30;4.00;;;;;;;11.38;100.00;97907.94;5024578;28;20688;-55
2022/07/17 04:48:42;;;;;;;4.30;3.93;;;;;;;11.42;100.00;97906.59;4955262;28;20353;-59
2022/07/17 04:51:12;;;;;;;3.80;3.60;;;;;;;11.53;100.00;97910.66;5017837;28;20285;-59
2022/07/17 04:53:40;;;;;;;4.67;3.60;;;;;;;11.69;100.00;97914.28;5023836;28;20557;-59
2022/07/17 04:56:08;;;;;;;4.27;3.77;;;;;;;11.79;100.00;97916.72;5013096;28;20872;-60
2022/07/17 04:58:37;;;;;;;3.83;3.20;;;;;;;11.91;100.00;97909.16;5004222;28;20239;-57
2022/07/17 05:01:05;;;;;;;3.80;3.50;;;;;;;11.96;100.00;97918.28;4999385;28;21350;-60
2022/07/17 05:03:33;;;;;;;3.90;3.60;;;;;;;12.13;100.00;97910.25;4981541;28;20224;-55
2022/07/17 05:06:01;;;;;;;3.67;3.47;;;;;;;12.37;100.00;97911.91;5009139;28;20937;-61
2022/07/17 05:08:31;;;;;;;3.70;3.30;;;;;;;12.50;100.00;97910.47;5025776;28;20797;-58
2022/07/17 05:10:59;;;;;;;4.80;3.57;;;;;;;12.55;100.00;97898.31;5009772;28;20228;-59
2022/07/17 05:13:27;;;;;;;3.50;3.20;;;;;;;12.76;100.00;97910.09;5005053;28;20689;-59
2022/07/17 05:15:56;;;;;;;3.37;3.00;;;;;;;12.86;100.00;97905.31;5019824;28;20251;-58
2022/07/17 05:18:24;;;;;;;3.77;3.43;;;;;;;12.95;100.00;97910.59;5001449;28;20196;-57
2022/07/17 05:20:52;;;;;;;3.37;3.17;;;;;;;12.93;100.00;97912.59;4977952;28;20772;-59
2022/07/17 05:23:20;;;;;;;2.93;2.73;;;;;;;13.01;100.00;97910.69;5012413;28;20212;-59
2022/07/17 05:25:50;;;;;;;3.63;2.87;;;;;;;13.18;100.00;97908.66;5010705;28;20195;-57
2022/07/17 05:28:18;;;;;;;3.20;3.00;;;;;;;13.34;100.00;97900.69;5028009;28;20261;-60
2022/07/17 05:30:54;;;;;;;3.67;2.67;;;;;;;13.42;100.00;97911.25;5002052;28;20308;-57
2022/07/17 05:33:22;;;;;;;3.77;2.80;;;;;;;13.49;100.00;97906.03;5022195;28;20199;-59
2022/07/17 05:35:50;;;;;;;3.90;3.03;;;;;;;13.81;100.00;97909.31;4975741;28;20290;-55
2022/07/17 05:38:18;;;;;;;3.67;3.37;;;;;;;13.86;100.00;97920.22;5007101;28;20267;-59
2022/07/17 05:40:46;;;;;;;2.60;2.50;;;;;;;13.97;100.00;97916.25;5018016;28;20696;-58
2022/07/17 05:43:16;;;;;;;2.60;2.50;;;;;;;13.96;100.00;97925.25;4988219;28;20294;-61
2022/07/17 05:45:44;;;;;;;2.80;2.63;;;;;;;13.93;100.00;97922.97;5006132;28;20287;-58
2022/07/17 05:48:12;;;;;;;3.63;3.20;;;;;;;14.09;100.00;97928.06;5023040;28;20232;-59
2022/07/17 05:50:41;;;;;;;2.33;2.23;;;;;;;14.31;100.00;97928.09;4976468;28;20700;-57
2022/07/17 05:53:09;;;;;;;2.80;2.60;;;;;;;14.40;100.00;97929.63;4997521;28;20601;-57
2022/07/17 05:55:37;;;;;;;3.67;2.70;;;;;;;14.47;100.00;97929.69;4989302;28;20263;-61
2022/07/17 05:58:05;;;;;;;2.57;2.40;;;;;;;14.66;100.00;97935.38;5000320;28;20222;-55
2022/07/17 06:00:35;;;;;;;3.10;2.83;;;;;;;14.68;100.00;97936.00;5009626;28;20306;-60
2022/07/17 06:03:04;;;;;;;2.50;2.40;;;;;;;14.94;100.00;97934.63;5007347;28;20282;-60
2022/07/17 06:05:33;;;;;;;2.87;2.73;;;;;;;15.20;100.00;97933.97;5012427;28;20197;-60
2022/07/17 06:08:01;;;;;;;2.57;2.47;;;;;;;15.22;100.00;97939.13;4996982;28;20199;-60
2022/07/17 06:10:30;;;;;;;2.73;2.53;;;;;;;15.19;100.00;97943.00;5008938;28;20235;-57
2022/07/17 06:12:58;;;;;;;4.13;2.60;;;;;;;15.29;100.00;97940.81;5002688;28;20215;-56
2022/07/17 06:15:26;;;;;;;3.33;2.67;;;;;;;15.52;100.00;97937.06;5012044;28;20247;-59
2022/07/17 06:17:56;;;;;;;2.60;2.50;;;;;;;15.65;100.00;97936.31;4989935;28;20215;-57
2022/07/17 06:20:24;;;;;;;3.83;3.47;;;;;;;15.73;100.00;97938.00;5023389;28;20654;-54
2022/07/17 06:22:52;;;;;;;11.43;2.97;;;;;;;15.74;100.00;97940.44;4983146;28;20209;-54
2022/07/17 06:25:20;;;;;;;3.17;2.73;;;;;;;15.74;100.00;97936.97;5013477;28;20200;-57
2022/07/17 06:27:49;;;;;;;2.87;2.67;;;;;;;16.16;99.03;97942.28;5025756;28;20227;-59
2022/07/17 06:30:17;;;;;;;2.40;2.20;;;;;;;16.13;99.66;97946.19;5018361;28;20270;-59
2022/07/17 06:32:46;;;;;;;2.60;2.40;;;;;;;16.30;98.64;97945.81;5008231;28;20208;-56
2022/07/17 06:35:15;;;;;;;10.70;2.83;;;;;;;16.39;96.07;97936.56;5013016;28;20223;-60
2022/07/17 06:37:44;;;;;;;2.37;2.17;;;;;;;16.54;93.18;97944.41;4988860;28;20259;-58
2022/07/17 06:40:12;;;;;;;2.40;2.20;;;;;;;16.65;93.30;97945.66;4975237;28;20254;-57
2022/07/17 06:42:40;;;;;;;2.63;2.43;;;;;;;16.95;96.52;97945.25;5006302;28;20201;-53
2022/07/17 06:45:09;;;;;;;3.63;2.20;;;;;;;17.00;86.22;97950.00;5001257;28;20303;-54
2022/07/17 06:47:38;;;;;;;2.87;2.67;;;;;;;17.16;82.50;97946.94;5011893;28;20311;-59
2022/07/17 06:50:08;;;;;;;4.60;2.20;;;;;;;17.43;86.35;97956.78;5019564;28;20963;-59
2022/07/17 06:52:37;;;;;;;2.30;2.10;;;;;;;17.45;79.17;97944.81;5030536;28;20231;-54
2022/07/17 06:55:13;;;;;;;2.30;2.10;;;;;;;17.72;75.87;97950.09;4973388;28;25199;-58
2022/07/17 06:57:41;;;;;;;2.40;2.20;;;;;;;18.01;74.46;97947.16;5004031;28;20215;-60
2022/07/17 07:00:10;;;;;;;2.13;2.03;;;;;;;18.21;71.16;97950.53;5003901;28;20848;-56
2022/07/17 07:02:38;;;;;;;2.70;2.07;;;;;;;18.37;64.50;97951.06;5014653;28;20223;-54
2022/07/17 07:05:07;;;;;;;5.00;2.43;;;;;;;18.46;64.69;97952.47;5026340;28;20208;-51
2022/07/17 07:07:37;;;;;;;2.70;2.47;;;;;;;18.49;61.15;97956.56;5030972;28;20211;-57
2022/07/17 07:10:06;;;;;;;2.53;2.33;;;;;;;18.46;68.02;97960.50;4983185;28;20313;-57
2022/07/17 07:12:34;;;;;;;3.20;2.10;;;;;;;18.62;63.50;97952.97;5029409;28;20235;-59
2022/07/17 07:15:02;;;;;;;4.57;1.90;;;;;;;18.91;59.46;97946.13;5021662;28;20207;-58
2022/07/17 07:17:38;;;;;;;4.13;2.63;;;;;;;19.15;53.37;97959.81;5018292;28;20302;-59
2022/07/17 07:20:08;;;;;;;1.80;1.63;;;;;;;19.35;54.99;97956.94;5012599;28;20637;-58
2022/07/17 07:22:38;;;;;;;4.80;1.70;;;;;;;19.32;54.78;97962.75;5024692;28;20212;-57
2022/07/17 07:25:08;;;;;;;3.67;1.83;;;;;;;19.56;51.49;97954.88;5003339;28;21044;-57
2022/07/17 07:27:36;;;;;;;2.83;1.87;;;;;;;19.74;50.01;97964.81;4978839;28;20285;-56
2022/07/17 07:30:05;;;;;;;3.60;1.40;;;;;;;19.72;49.74;97961.53;5022089;28;20310;-56
2022/07/17 07:32:33;;;;;;;2.13;1.93;;;;;;;19.70;48.58;97962.78;5026334;28;20683;-59
2022/07/17 07:35:01;;;;;;;3.33;1.90;;;;;;;19.86;49.05;97958.69;5011865;28;20389;-59
2022/07/17 07:37:29;;;;;;;2.97;1.63;;;;;;;20.16;49.33;97961.44;5030976;28;20493;-58
2022/07/17 07:40:00;;;;;;;1.70;1.60;;;;;;;20.32;48.01;97967.25;5004135;28;20466;-56
2022/07/17 07:42:28;;;;;;;2.13;1.60;;;;;;;20.39;47.33;97976.03;4987687;28;20275;-57
2022/07/17 07:44:56;;;;;;;2.87;2.07;;;;;;;20.39;46.81;97967.97;5026145;28;20875;-59
2022/07/17 07:47:24;;;;;;;2.03;1.90;;;;;;;20.47;48.11;97967.63;5026838;28;20251;-59
2022/07/17 07:49:52;;;;;;;2.53;1.80;;;;;;;20.66;48.54;97956.81;4998433;28;20286;-58
2022/07/17 07:52:21;;;;;;;2.03;1.80;;;;;;;20.68;49.01;97965.47;5024986;28;20292;-56
2022/07/17 07:54:49;;;;;;;2.20;2.00;;;;;;;20.64;47.98;97956.19;5004978;28;20445;-59
2022/07/17 07:57:18;;;;;;;2.00;1.90;;;;;;;20.63;47.42;97959.94;4960399;28;20461;-60
2022/07/17 07:59:47;;;;;;;2.17;1.60;;;;;;;20.61;47.64;97951.28;5016281;28;20228;-55
2022/07/17 08:02:15;;;;;;;1.87;1.77;;;;;;;20.68;45.94;97944.75;5012118;28;20293;-59
2022/07/17 08:04:43;;;;;;;2.00;1.90;;;;;;;20.95;46.34;97944.38;5010813;28;20239;-58
2022/07/17 08:07:12;;;;;;;2.50;1.53;;;;;;;21.21;48.38;97942.28;5021892;28;20711;-58
2022/07/17 08:09:40;;;;;;;2.77;1.60;;;;;;;21.07;44.37;97936.28;5020817;28;20285;-59
2022/07/17 08:12:08;;;;;;;1.63;1.53;;;;;;;21.06;46.01;97945.44;5010124;28;20494;-57
2022/07/17 08:14:58;;;;;;;4.20;1.80;;;;;;;20.88;46.89;97942.81;4977998;28;20748;-56
2022/07/17 08:17:26;;;;;;;1.97;1.87;;;;;;;21.08;43.89;97939.78;5010808;28;20282;-59
2022/07/17 08:19:54;;;;;;;4.30;2.33;;;;;;;21.27;43.25;97950.47;5003645;28;20312;-52
2022/07/17 08:22:22;;;;;;;3.43;2.93;;;;;;;21.50;41.94;97950.44;5022233;28;20204;-59
2022/07/17 08:25:10;;;;;;;1.70;1.60;;;;;;;21.67;43.36;97942.47;5021900;28;20218;-51
2022/07/17 08:27:39;;;;;;;4.63;1.67;;;;;;;21.73;42.11;97942.56;5005425;28;20211;-53
2022/07/17 08:30:13;;;;;;;1.13;1.13;;;;;;;21.76;40.41;97947.50;4979828;28;20239;-58
2022/07/17 08:32:42;;;;;;;1.30;1.30;;;;;;;21.60;40.04;97940.97;5009748;28;20508;-59
2022/07/17 08:35:12;;;;;;;2.50;1.57;;;;;;;21.55;40.67;97945.16;5005888;28;23294;-59
2022/07/17 08:37:45;;;;;;;1.40;1.30;;;;;;;21.68;40.37;97940.63;5026449;28;20608;-57
2022/07/17 08:40:18;;;;;;;3.23;1.70;;;;;;;22.17;42.02;97940.25;5025771;28;20835;-57
2022/07/17 08:42:46;;;;;;;1.50;1.40;;;;;;;22.45;39.73;97949.38;4980704;28;20417;-59
2022/07/17 08:45:15;;;;;;;1.10;1.10;;;;;;;21.85;39.57;97948.78;4979986;28;20261;-57
2022/07/17 08:47:43;;;;;;;1.33;1.30;;;;;;;21.27;39.36;97953.97;4967116;28;20398;-58
2022/07/17 08:50:13;;;;;;;2.40;1.80;;;;;;;21.39;39.99;97957.47;5021536;28;20577;-56
2022/07/17 08:52:42;;;;;;;2.67;1.57;;;;;;;21.32;40.51;97951.38;5007539;28;20232;-59
2022/07/17 08:55:13;;;;;;;2.67;2.47;;;;;;;21.48;39.68;97955.25;5022958;28;20488;-58
2022/07/17 08:57:43;;;;;;;1.97;1.77;;;;;;;21.51;38.18;97962.84;5022070;28;20231;-60
2022/07/17 09:00:18;;;;;;;3.90;1.87;;;;;;;21.83;39.89;97965.19;5022255;28;20255;-54
2022/07/17 09:02:59;;;;;;;1.30;1.20;;;;;;;21.85;38.98;97983.00;4977029;28;20364;-52
2022/07/17 09:05:29;;;;;;;2.30;1.77;;;;;;;21.93;39.10;97977.25;5026515;28;20470;-53
2022/07/17 09:07:58;;;;;;;1.50;1.40;;;;;;;22.02;38.54;97961.50;5000518;28;20207;-55
2022/07/17 09:10:37;;;;;;;1.37;1.33;;;;;;;22.17;37.65;97969.91;5023977;28;20254;-56
2022/07/17 09:13:17;;;;;;;1.93;1.83;;;;;;;22.31;37.74;97953.44;5019329;28;20742;-54
2022/07/17 09:15:48;;;;;;;2.20;1.80;;;;;;;22.38;39.13;97957.63;5020635;28;20235;-56
2022/07/17 09:18:17;;;;;;;1.97;1.87;;;;;;;22.49;38.93;97965.94;4980289;28;20276;-53
2022/07/17 09:20:47;;;;;;;2.87;1.47;;;;;;;22.50;38.08;97957.56;5021926;28;20246;-59
2022/07/17 09:23:15;;;;;;;1.93;1.73;;;;;;;22.29;38.44;97960.94;5008057;28;20200;-58
2022/07/17 09:25:45;;;;;;;3.40;2.30;;;;;;;22.29;38.74;97958.25;5018624;28;20207;-60
2022/07/17 09:28:15;;;;;;;1.87;1.77;;;;;;;22.27;37.80;97948.53;5022447;28;20196;-56
2022/07/17 09:30:45;;;;;;;4.40;1.47;;;;;;;22.24;38.84;97948.16;5023724;28;20879;-57
2022/07/17 09:33:17;;;;;;;2.20;2.10;;;;;;;22.16;38.48;97941.28;4976800;28;21106;-59
2022/07/17 09:35:50;;;;;;;1.80;1.70;;;;;;;22.02;38.08;97950.72;5022038;28;20201;-58
2022/07/17 09:38:29;;;;;;;1.80;1.63;;;;;;;22.13;38.49;97949.84;5006822;28;20243;-58
2022/07/17 09:41:16;;;;;;;2.87;1.90;;;;;;;22.11;38.85;97955.50;5017990;28;20663;-61
2022/07/17 09:43:47;;;;;;;1.47;1.30;;;;;;;22.03;38.25;97955.06;5021411;28;20698;-58
2022/07/17 09:46:17;;;;;;;2.35;1.60;;;;;;;22.29;35.75;97942.88;5023505;28;20472;-60
2022/07/17 09:48:49;;;;;;;1.70;1.60;;;;;;;22.11;36.38;97943.88;4979778;28;20485;-59
2022/07/17 09:51:25;;;;;;;1.70;1.60;;;;;;;22.12;37.06;97935.56;5027938;28;20249;-60
2022/07/17 09:53:55;;;;;;;2.40;1.47;;;;;;;22.39;36.18;97936.84;5011237;28;20231;-60
2022/07/17 09:56:25;;;;;;;2.03;1.83;;;;;;;22.48;36.33;97935.41;5024023;28;20589;-56
2022/07/17 09:58:57;;;;;;;2.97;1.90;;;;;;;22.54;36.54;97933.63;5027311;28;20663;-58
2022/07/17 10:01:25;;;;;;;2.03;1.83;;;;;;;22.52;37.22;97938.44;5029946;28;20207;-62
2022/07/17 10:03:55;;;;;;;1.70;1.60;;;;;;;22.67;37.75;97935.19;4981253;28;20286;-61
2022/07/17 10:06:24;;;;;;;3.50;2.00;;;;;;;22.54;38.14;97931.75;5020221;28;20864;-60
2022/07/17 10:08:54;;;;;;;1.90;1.80;;;;;;;22.54;37.58;97929.06;5007841;28;20208;-60
2022/07/17 10:11:23;;;;;;;1.60;1.50;;;;;;;22.80;38.12;97929.47;5023603;28;20708;-60
2022/07/17 10:13:54;;;;;;;2.43;1.50;;;;;;;22.72;37.04;97927.19;5021747;28;20201;-57
2022/07/17 10:16:27;;;;;;;2.27;1.63;;;;;;;22.53;37.18;97916.59;5028150;28;20208;-56
2022/07/17 10:18:58;;;;;;;1.60;1.43;;;;;;;22.55;35.96;97919.91;4979503;28;21462;-60
2022/07/17 10:21:28;;;;;;;5.77;4.90;;;;;;;22.93;37.58;97919.41;5029078;28;20200;-61
2022/07/17 10:24:10;;;;;;;2.97;1.80;;;;;;;23.15;36.54;97924.03;5006891;28;20203;-58
2022/07/17 10:26:44;;;;;;;3.80;1.60;;;;;;;23.08;36.10;97930.44;5026622;28;20215;-56
2022/07/17 10:29:32;;;;;;;1.50;1.40;;;;;;;23.07;36.56;97923.41;5022126;28;20362;-56
2022/07/17 10:32:01;;;;;;;1.93;1.83;;;;;;;23.16;38.37;97922.97;5019580;28;20285;-60
2022/07/17 10:34:45;;;;;;;1.63;1.53;;;;;;;23.33;36.17;97918.41;4970421;28;20274;-59
2022/07/17 10:37:22;;;;;;;1.20;1.20;;;;;;;23.58;36.68;97916.28;5024347;28;20709;-56
2022/07/17 10:40:05;;;;;;;1.50;1.40;;;;;;;23.66;36.41;97905.03;4987716;28;20774;-59
2022/07/17 10:42:45;;;;;;;2.03;1.70;;;;;;;23.55;35.03;97912.19;5023899;28;20205;-59
2022/07/17 10:45:14;;;;;;;2.90;2.00;;;;;;;23.61;34.57;97913.88;5001617;28;20204;-55
2022/07/17 10:47:48;;;;;;;1.87;1.70;;;;;;;23.57;32.75;97912.75;5003435;28;20236;-55
2022/07/17 10:50:20;;;;;;;2.20;1.67;;;;;;;23.30;34.63;97916.22;4986030;28;20778;-60
2022/07/17 10:53:04;;;;;;;1.50;1.40;;;;;;;23.29;32.75;97913.72;4982582;28;20212;-59
2022/07/17 10:55:33;;;;;;;5.77;1.70;;;;;;;23.20;33.89;97911.44;5009049;28;20639;-56
2022/07/17 10:58:01;;;;;;;2.20;2.00;;;;;;;23.30;33.63;97916.22;5017341;28;20552;-58
2022/07/17 11:00:32;;;;;;;1.80;1.33;;;;;;;23.61;34.39;97908.47;5011292;28;20228;-58
2022/07/17 11:03:10;;;;;;;1.93;1.50;;;;;;;23.89;32.31;97905.84;4998852;28;21083;-55
2022/07/17 11:05:39;;;;;;;1.33;1.23;;;;;;;23.96;33.16;97904.56;5022204;28;20699;-60
2022/07/17 11:08:11;;;;;;;1.43;1.33;;;;;;;23.88;32.14;97906.91;5009389;28;20207;-58
2022/07/17 11:10:39;;;;;;;1.70;1.60;;;;;;;23.68;29.96;97905.59;4990752;28;20227;-58
2022/07/17 11:13:14;;;;;;;2.90;1.60;;;;;;;23.90;31.96;97908.28;5001165;28;20207;-57
2022/07/17 11:15:45;;;;;;;1.27;1.20;;;;;;;23.95;32.49;97900.22;4970723;28;20278;-58
2022/07/17 11:18:19;;;;;;;1.63;1.43;;;;;;;24.09;32.02;97902.56;5002415;28;20220;-59
2022/07/17 11:20:50;;;;;;;1.43;1.23;;;;;;;24.16;31.12;97902.34;5022663;28;20309;-56
2022/07/17 11:23:19;;;;;;;1.57;1.47;;;;;;;24.21;30.79;97897.81;5004950;28;20207;-59
2022/07/17 11:25:59;;;;;;;1.87;1.40;;;;;;;24.07;29.28;97902.03;4985015;28;20207;-57
2022/07/17 11:28:38;;;;;;;1.37;1.10;;;;;;;23.76;27.05;97893.53;5001743;28;20207;-50
2022/07/17 11:31:17;;;;;;;1.27;1.10;;;;;;;23.77;29.01;97889.75;5009414;28;20204;-59
2022/07/17 11:33:50;;;;;;;1.60;1.50;;;;;;;24.03;29.35;97881.91;5007784;28;20209;-59
2022/07/17 11:36:29;;;;;;;1.47;1.37;;;;;;;24.34;31.04;97893.06;5011341;28;20257;-57
2022/07/17 11:38:59;;;;;;;1.27;1.17;;;;;;;24.46;29.74;97895.59;5014517;28;20242;-59
2022/07/17 11:41:35;;;;;;;1.17;1.17;;;;;;;24.31;27.92;97888.16;5015924;28;20204;-59